Time;durP1;ratioP1;P1;durP2;ratioP2;P2;SDS_P1;SDS_P2;PMS_P1;PMS_P2;Temp;Humidity;BMP_temperature;BMP_pressure;BME280_temperature;BME280_humidity;BME280_pressure;Samples;Min_cycle;Max_cycle;Signal;HPM_P1;HPM_P2
2021/05/04 00:00:09;;;;;;;2.70;2.42;;;;;;;3.93;68.57;96663.88;1744548;79;21149;-81
2021/05/04 00:02:37;;;;;;;3.45;2.27;;;;;;;3.89;68.31;96658.17;1787904;78;21490;-81
2021/05/04 00:05:04;;;;;;;2.83;2.25;;;;;;;3.87;68.31;96654.92;1759263;77;21101;-81
2021/05/04 00:07:30;;;;;;;2.60;2.30;;;;;;;3.88;68.41;96654.45;1807426;77;21129;-81
2021/05/04 00:09:56;;;;;;;3.37;2.72;;;;;;;3.85;68.10;96649.58;1804111;78;21130;-81
2021/05/04 00:12:26;;;;;;;4.05;2.30;;;;;;;3.85;68.42;96644.44;1817417;78;21120;-80
2021/05/04 00:14:54;;;;;;;3.20;1.77;;;;;;;3.88;68.63;96648.02;1806277;78;21115;-80
2021/05/04 00:17:23;;;;;;;2.15;1.98;;;;;;;3.88;68.28;96648.84;1803008;78;21233;-81
2021/05/04 00:19:48;;;;;;;3.40;2.40;;;;;;;3.90;68.26;96646.97;1774241;77;21126;-80
2021/05/04 00:22:14;;;;;;;3.35;2.62;;;;;;;3.91;68.88;96639.59;1803294;78;21058;-80
2021/05/04 00:24:44;;;;;;;2.72;2.10;;;;;;;3.89;68.98;96640.65;1776294;80;21258;-81
2021/05/04 00:27:10;;;;;;;2.50;2.08;;;;;;;3.88;69.47;96644.17;1771362;80;21121;-82
2021/05/04 00:29:36;;;;;;;3.70;2.62;;;;;;;3.84;69.31;96635.10;1800316;78;21344;-82
2021/05/04 00:32:02;;;;;;;4.97;2.42;;;;;;;3.81;69.06;96634.09;1786558;78;21082;-82
2021/05/04 00:34:28;;;;;;;3.47;2.37;;;;;;;3.79;68.61;96629.09;1808297;78;21244;-82
2021/05/04 00:36:54;;;;;;;4.45;2.58;;;;;;;3.79;68.75;96632.94;1797943;77;21094;-81
2021/05/04 00:39:25;;;;;;;2.45;2.00;;;;;;;3.78;69.21;96630.03;1798176;78;21328;-81
2021/05/04 00:41:49;;;;;;;3.90;2.40;;;;;;;3.80;68.98;96633.75;1797563;78;21252;-82
2021/05/04 00:44:14;;;;;;;3.65;2.37;;;;;;;3.81;68.67;96634.09;1805577;78;21066;-81
2021/05/04 00:46:41;;;;;;;4.08;2.45;;;;;;;3.83;68.21;96629.63;1807414;78;21117;-81
2021/05/04 00:49:07;;;;;;;4.53;2.90;;;;;;;3.86;68.39;96633.20;1806794;78;21434;-81
2021/05/04 00:51:32;;;;;;;4.40;2.55;;;;;;;3.87;68.29;96629.69;1772030;80;21094;-80
2021/05/04 00:53:58;;;;;;;2.67;2.30;;;;;;;3.88;68.56;96629.55;1749704;80;21211;-80
2021/05/04 00:56:24;;;;;;;2.85;2.37;;;;;;;3.88;68.47;96620.56;1771824;78;21100;-80
2021/05/04 00:58:50;;;;;;;2.87;2.60;;;;;;;3.87;67.79;96621.50;1800621;78;21431;-80
2021/05/04 01:01:18;;;;;;;2.50;2.30;;;;;;;3.88;67.80;96623.60;1774635;78;21141;-80
2021/05/04 01:03:44;;;;;;;3.80;2.70;;;;;;;3.88;68.72;96621.84;1743888;80;21101;-80
2021/05/04 01:06:10;;;;;;;5.50;2.40;;;;;;;3.87;68.59;96620.70;1773574;80;21135;-80
2021/05/04 01:08:37;;;;;;;3.58;2.37;;;;;;;3.85;68.46;96615.69;1754748;80;21746;-80
2021/05/04 01:11:03;;;;;;;3.12;2.25;;;;;;;3.87;68.28;96620.70;1748959;81;21149;-81
2021/05/04 01:13:29;;;;;;;3.42;2.70;;;;;;;3.89;68.20;96618.80;1754452;81;21440;-81
2021/05/04 01:15:55;;;;;;;4.30;2.85;;;;;;;3.90;67.78;96617.41;1750856;81;21113;-81
2021/05/04 01:18:21;;;;;;;4.70;2.40;;;;;;;3.95;67.76;96613.14;1722871;81;21439;-81
2021/05/04 01:20:49;;;;;;;3.05;2.47;;;;;;;3.98;68.16;96609.00;1749242;81;21337;-81
2021/05/04 01:23:16;;;;;;;2.37;2.05;;;;;;;3.99;67.79;96600.34;1751001;81;21138;-81
2021/05/04 01:25:42;;;;;;;3.45;2.40;;;;;;;3.97;68.23;96597.09;1751444;81;21078;-81
2021/05/04 01:28:10;;;;;;;3.15;2.17;;;;;;;3.93;68.54;96592.38;1748028;81;21114;-81
2021/05/04 01:30:36;;;;;;;3.62;2.20;;;;;;;3.88;67.89;96585.05;1754173;81;21263;-81
2021/05/04 01:33:02;;;;;;;3.67;2.27;;;;;;;3.93;68.13;96589.33;1747938;81;21481;-82
2021/05/04 01:35:29;;;;;;;3.95;2.22;;;;;;;3.94;68.39;96588.85;1749987;81;21146;-82
2021/05/04 01:37:56;;;;;;;3.20;2.47;;;;;;;3.96;68.30;96590.81;1748766;81;21121;-81
2021/05/04 01:40:22;;;;;;;3.22;2.30;;;;;;;3.98;68.19;96595.34;1750627;81;21149;-81
2021/05/04 01:42:48;;;;;;;2.65;2.12;;;;;;;3.99;68.24;96585.39;1751879;81;21434;-82
2021/05/04 01:45:14;;;;;;;2.67;2.08;;;;;;;3.98;68.02;96586.34;1746892;81;21142;-81
2021/05/04 01:47:46;;;;;;;2.87;2.02;;;;;;;3.98;67.68;96580.72;1752464;81;21180;-81
2021/05/04 01:50:13;;;;;;;2.50;1.82;;;;;;;4.00;66.95;96578.83;1754084;81;21372;-80
2021/05/04 01:52:39;;;;;;;2.83;2.37;;;;;;;4.04;67.48;96578.07;1748873;81;21102;-80
2021/05/04 01:55:06;;;;;;;5.78;3.15;;;;;;;4.05;67.35;96574.55;1753500;81;21173;-80
2021/05/04 01:57:32;;;;;;;2.70;2.50;;;;;;;4.02;66.93;96576.92;1752233;81;21284;-80
2021/05/04 01:59:58;;;;;;;13.50;3.60;;;;;;;3.99;66.84;96573.82;1750864;81;21133;-80
2021/05/04 02:02:24;;;;;;;3.02;2.10;;;;;;;3.96;67.09;96573.63;1746545;81;21983;-80
2021/05/04 02:04:53;;;;;;;2.90;2.37;;;;;;;3.93;67.00;96575.66;1741011;81;21123;-80
2021/05/04 02:07:20;;;;;;;2.60;2.33;;;;;;;3.91;66.39;96573.23;1739658;81;21240;-80
2021/05/04 02:09:46;;;;;;;2.90;2.08;;;;;;;3.93;66.93;96575.66;1745709;81;21161;-80
2021/05/04 02:12:12;;;;;;;5.92;2.60;;;;;;;3.90;66.44;96573.70;1744283;81;21570;-80
2021/05/04 02:14:38;;;;;;;2.70;2.45;;;;;;;3.92;66.11;96574.85;1743429;81;21154;-80
2021/05/04 02:17:04;;;;;;;3.90;2.50;;;;;;;4.00;66.57;96562.59;1746812;81;21460;-80
2021/05/04 02:19:30;;;;;;;2.58;2.25;;;;;;;4.00;66.57;96562.59;1748939;80;21275;-80
2021/05/04 02:21:56;;;;;;;2.50;2.22;;;;;;;4.02;66.38;96562.78;1749253;79;21138;-81
2021/05/04 02:24:22;;;;;;;3.65;2.58;;;;;;;4.05;65.66;96564.27;1753577;79;21145;-80
2021/05/04 02:26:48;;;;;;;5.30;2.58;;;;;;;4.07;65.98;96561.11;1748354;81;21126;-81
2021/05/04 02:29:14;;;;;;;3.00;2.65;;;;;;;4.12;65.52;96561.03;1749914;80;21134;-79
2021/05/04 02:31:40;;;;;;;3.55;2.20;;;;;;;4.17;65.47;96562.70;1750577;78;21137;-80
2021/05/04 02:34:06;;;;;;;2.30;1.80;;;;;;;4.19;65.48;96562.56;1748377;80;21125;-80
2021/05/04 02:36:32;;;;;;;3.80;2.50;;;;;;;4.20;64.47;96557.28;1748808;80;21118;-80
2021/05/04 02:38:58;;;;;;;4.35;2.98;;;;;;;4.25;64.83;96557.36;1747930;80;21271;-80
2021/05/04 02:41:24;;;;;;;2.20;1.80;;;;;;;4.27;64.77;96555.46;1751252;78;21155;-80
2021/05/04 02:43:50;;;;;;;2.33;2.12;;;;;;;4.29;65.03;96551.80;1751360;80;21402;-80
2021/05/04 02:46:17;;;;;;;2.10;1.80;;;;;;;4.26;65.75;96552.08;1746753;80;21098;-82
2021/05/04 02:48:43;;;;;;;2.92;2.17;;;;;;;4.21;65.27;96547.80;1747368;81;21106;-81
2021/05/04 02:51:11;;;;;;;2.40;2.15;;;;;;;4.24;64.20;96541.59;1748787;80;21157;-81
2021/05/04 02:53:38;;;;;;;3.60;3.08;;;;;;;4.31;65.12;96546.51;1751122;79;21137;-82
2021/05/04 02:56:05;;;;;;;3.20;2.40;;;;;;;4.33;64.00;96535.13;1751914;81;21130;-81
2021/05/04 02:58:31;;;;;;;2.77;2.15;;;;;;;4.41;63.32;96522.88;1752012;78;21283;-81
2021/05/04 03:01:07;;;;;;;3.45;2.10;;;;;;;4.51;64.03;96530.06;1753089;81;21134;-81
2021/05/04 03:03:34;;;;;;;5.10;2.42;;;;;;;4.50;63.99;96524.58;1741589;81;21106;-82
2021/05/04 03:06:02;;;;;;;2.50;2.17;;;;;;;4.58;62.77;96529.86;1754183;80;21105;-82
2021/05/04 03:08:28;;;;;;;2.83;2.00;;;;;;;4.63;62.14;96524.28;1751980;80;21224;-80
2021/05/04 03:10:54;;;;;;;3.15;2.50;;;;;;;4.65;62.81;96516.75;1806047;78;21097;-79
2021/05/04 03:13:28;;;;;;;2.50;2.20;;;;;;;4.65;61.99;96508.22;1809572;78;21142;-82
2021/05/04 03:15:55;;;;;;;4.28;2.12;;;;;;;4.71;61.13;96508.45;1792426;78;21332;-82
2021/05/04 03:18:21;;;;;;;2.62;2.02;;;;;;;4.74;61.94;96511.23;1798688;78;21324;-82
2021/05/04 03:20:49;;;;;;;4.00;2.00;;;;;;;4.80;61.68;96505.51;1770657;78;21170;-81
2021/05/04 03:23:16;;;;;;;2.92;2.10;;;;;;;4.84;61.06;96499.11;1796893;78;21365;-81
2021/05/04 03:25:42;;;;;;;3.30;2.02;;;;;;;4.86;61.06;96502.34;1800714;78;21081;-81
2021/05/04 03:28:09;;;;;;;2.60;2.10;;;;;;;4.87;61.29;96505.25;1799554;78;21454;-81
2021/05/04 03:30:35;;;;;;;3.58;2.10;;;;;;;4.91;60.49;96494.22;1802156;78;21122;-81
2021/05/04 03:33:02;;;;;;;2.62;1.87;;;;;;;4.94;60.54;96492.16;1797179;78;21109;-81
2021/05/04 03:35:28;;;;;;;4.12;2.50;;;;;;;4.98;59.97;96476.75;1790540;78;21133;-82
2021/05/04 03:37:54;;;;;;;2.50;2.10;;;;;;;5.03;61.12;96480.17;1774244;78;21225;-82
2021/05/04 03:40:20;;;;;;;2.65;2.22;;;;;;;5.00;60.43;96481.27;1766361;80;21089;-82
2021/05/04 03:42:46;;;;;;;2.60;1.95;;;;;;;4.98;61.36;96487.05;1746149;80;21109;-82
2021/05/04 03:45:12;;;;;;;3.05;1.95;;;;;;;4.96;61.20;96485.09;1742695;82;21293;-82
2021/05/04 03:47:40;;;;;;;2.55;2.30;;;;;;;4.93;60.88;96480.24;1795036;78;21573;-82
2021/05/04 03:50:10;;;;;;;3.15;2.27;;;;;;;4.97;60.63;96480.76;1799821;78;21129;-81
2021/05/04 03:52:36;;;;;;;3.27;2.50;;;;;;;5.01;59.82;96478.22;1800991;78;21089;-82
2021/05/04 03:55:02;;;;;;;3.00;2.30;;;;;;;5.07;60.26;96478.95;1805802;78;21255;-82
2021/05/04 03:57:29;;;;;;;3.33;2.20;;;;;;;5.11;60.26;96475.12;1799531;78;21062;-82
2021/05/04 03:59:55;;;;;;;4.92;2.40;;;;;;;5.17;59.63;96473.23;1798309;78;21074;-82
2021/05/04 04:02:21;;;;;;;3.33;2.60;;;;;;;5.20;60.24;96470.36;1808156;78;21334;-81
2021/05/04 04:04:47;;;;;;;3.62;2.52;;;;;;;5.22;59.94;96473.63;1804261;78;21630;-81
2021/05/04 04:07:13;;;;;;;2.50;2.00;;;;;;;5.26;59.41;96467.22;1771282;80;21323;-81
2021/05/04 04:09:39;;;;;;;2.58;2.22;;;;;;;5.31;59.39;96459.86;1777884;80;21104;-82
2021/05/04 04:12:05;;;;;;;2.50;1.95;;;;;;;5.31;59.69;96459.05;1747958;80;21367;-82
2021/05/04 04:14:31;;;;;;;8.35;4.20;;;;;;;5.33;59.40;96473.88;1748740;81;21259;-83
2021/05/04 04:16:58;;;;;;;4.05;2.95;;;;;;;5.34;59.67;96462.13;1748871;81;21248;-83
2021/05/04 04:19:24;;;;;;;2.72;2.30;;;;;;;5.38;58.97;96463.48;1747827;81;21293;-81
2021/05/04 04:21:50;;;;;;;3.40;2.42;;;;;;;5.41;58.79;96463.18;1752245;81;21062;-81
2021/05/04 04:24:17;;;;;;;3.98;2.80;;;;;;;5.44;58.39;96456.91;1754632;81;21291;-81
2021/05/04 04:26:43;;;;;;;4.85;4.25;;;;;;;5.52;58.46;96455.69;1743974;81;21113;-81
2021/05/04 04:29:09;;;;;;;2.95;2.10;;;;;;;5.59;58.39;96449.47;1751961;81;21105;-81
2021/05/04 04:31:35;;;;;;;3.92;2.40;;;;;;;5.59;57.97;96452.86;1752422;81;22057;-81
2021/05/04 04:34:01;;;;;;;3.95;2.50;;;;;;;5.61;59.12;96438.05;1748194;81;21885;-81
2021/05/04 04:36:27;;;;;;;3.08;2.77;;;;;;;5.63;58.74;96452.88;1747121;81;21114;-81
2021/05/04 04:38:53;;;;;;;3.25;2.50;;;;;;;5.66;58.56;96438.41;1748508;81;21136;-81
2021/05/04 04:41:22;;;;;;;3.15;2.85;;;;;;;5.73;58.89;96445.89;1751537;81;21122;-81
2021/05/04 04:43:48;;;;;;;4.60;3.25;;;;;;;5.83;59.27;96441.09;1719340;81;21523;-81
2021/05/04 04:46:14;;;;;;;3.35;2.90;;;;;;;5.89;59.16;96441.33;1748126;81;21125;-81
2021/05/04 04:48:40;;;;;;;4.05;2.83;;;;;;;5.99;57.91;96434.31;1748205;81;21260;-81
2021/05/04 04:51:07;;;;;;;3.77;3.05;;;;;;;6.10;57.89;96433.26;1754570;81;21537;-81
2021/05/04 04:53:33;;;;;;;2.62;2.33;;;;;;;6.20;58.07;96431.39;1724359;81;21125;-81
2021/05/04 04:55:59;;;;;;;4.05;3.40;;;;;;;6.23;57.09;96427.21;1777920;80;21496;-83
2021/05/04 04:58:25;;;;;;;4.17;3.52;;;;;;;6.33;57.42;96438.69;1742988;81;21129;-83
2021/05/04 05:00:51;;;;;;;4.92;3.35;;;;;;;6.41;57.49;96433.59;1770214;80;21217;-83
2021/05/04 05:03:17;;;;;;;3.62;3.33;;;;;;;6.48;57.33;96433.28;1753430;81;21100;-82
2021/05/04 05:05:44;;;;;;;5.40;4.90;;;;;;;6.53;57.16;96428.48;1733406;81;21138;-82
2021/05/04 05:08:10;;;;;;;4.47;3.45;;;;;;;6.62;57.17;96428.02;1733230;81;21136;-82
2021/05/04 05:10:36;;;;;;;3.05;2.67;;;;;;;6.73;56.84;96417.90;1718497;82;22033;-82
2021/05/04 05:13:02;;;;;;;3.37;3.08;;;;;;;6.83;56.93;96412.09;1718722;82;21111;-82
2021/05/04 05:15:29;;;;;;;3.40;2.87;;;;;;;6.96;56.46;96410.36;1741484;82;21122;-82
2021/05/04 05:17:55;;;;;;;2.58;2.35;;;;;;;7.04;56.30;96411.69;1718528;83;21131;-82
2021/05/04 05:20:21;;;;;;;2.90;2.45;;;;;;;7.10;56.19;96410.55;1737274;81;21070;-82
2021/05/04 05:22:47;;;;;;;3.08;2.52;;;;;;;7.17;55.63;96412.84;1709402;83;21155;-82
2021/05/04 05:25:13;;;;;;;4.62;2.80;;;;;;;7.27;56.69;96409.28;1732015;82;21094;-82
2021/05/04 05:27:39;;;;;;;2.95;2.20;;;;;;;7.35;54.01;96413.98;1715915;82;21116;-82
2021/05/04 05:30:09;;;;;;;3.20;2.90;;;;;;;7.44;55.28;96408.32;1722302;83;21114;-82
2021/05/04 05:32:35;;;;;;;3.47;2.87;;;;;;;7.51;56.02;96406.23;1722365;82;21142;-81
2021/05/04 05:35:01;;;;;;;4.85;3.10;;;;;;;7.56;56.04;96401.06;1721209;83;21116;-82
2021/05/04 05:37:27;;;;;;;4.60;3.55;;;;;;;7.59;55.60;96404.61;1726033;82;21146;-81
2021/05/04 05:39:54;;;;;;;2.95;2.67;;;;;;;7.61;55.74;96403.47;1722684;82;21329;-81
2021/05/04 05:42:20;;;;;;;4.67;3.17;;;;;;;7.65;55.90;96402.20;1726427;83;21432;-81
2021/05/04 05:44:47;;;;;;;4.40;2.92;;;;;;;7.69;55.89;96393.63;1728085;82;21236;-81
2021/05/04 05:47:13;;;;;;;3.90;3.22;;;;;;;7.68;55.71;96392.81;1728309;82;21118;-81
2021/05/04 05:49:39;;;;;;;3.30;3.00;;;;;;;7.68;55.73;96392.01;1725424;79;21118;-81
2021/05/04 05:52:06;;;;;;;3.08;2.72;;;;;;;7.63;55.03;96383.42;1693540;82;21134;-82
2021/05/04 05:54:32;;;;;;;4.53;3.20;;;;;;;7.62;55.62;96380.52;1719464;82;21265;-81
2021/05/04 05:56:58;;;;;;;4.22;2.77;;;;;;;7.73;55.92;96368.55;1719238;82;21149;-81
2021/05/04 05:59:24;;;;;;;3.77;2.80;;;;;;;7.90;55.85;96368.04;1732479;80;21138;-82
2021/05/04 06:01:50;;;;;;;3.77;2.92;;;;;;;8.07;55.40;96363.14;1739682;78;21133;-83
2021/05/04 06:04:16;;;;;;;3.60;3.12;;;;;;;8.24;55.51;96350.95;1736202;81;21122;-82
2021/05/04 06:06:42;;;;;;;4.67;3.20;;;;;;;8.39;55.31;96337.66;1770441;81;21098;-82
2021/05/04 06:09:08;;;;;;;4.28;2.87;;;;;;;8.55;54.59;96336.77;1772776;80;21244;-81
2021/05/04 06:11:35;;;;;;;4.33;3.05;;;;;;;8.70;55.09;96327.78;1773281;81;21215;-82
2021/05/04 06:14:01;;;;;;;3.87;3.40;;;;;;;8.87;55.10;96325.41;1767969;81;21109;-82
2021/05/04 06:16:26;;;;;;;3.98;3.42;;;;;;;9.00;54.93;96324.84;1766825;81;21111;-81
2021/05/04 06:18:52;;;;;;;4.22;3.30;;;;;;;9.12;53.93;96323.47;1765640;81;21108;-82
2021/05/04 06:21:18;;;;;;;3.92;3.52;;;;;;;9.24;54.21;96320.75;1770472;80;21593;-81
2021/05/04 06:23:44;;;;;;;3.83;3.08;;;;;;;9.35;54.19;96310.47;1769242;81;21188;-81
2021/05/04 06:26:10;;;;;;;3.90;3.50;;;;;;;9.47;54.22;96306.47;1763151;81;21100;-81
2021/05/04 06:28:38;;;;;;;4.55;2.85;;;;;;;9.57;53.14;96298.42;1760916;81;21259;-81
2021/05/04 06:31:06;;;;;;;3.80;3.10;;;;;;;9.68;52.39;96289.41;1726897;81;21109;-81
2021/05/04 06:33:32;;;;;;;4.15;3.40;;;;;;;9.78;53.21;96296.45;1768937;80;21157;-81
2021/05/04 06:35:58;;;;;;;5.87;3.83;;;;;;;9.88;52.27;96290.48;1783631;80;21131;-81
2021/05/04 06:38:24;;;;;;;3.77;3.27;;;;;;;9.81;51.76;96287.81;1762789;79;21075;-81
2021/05/04 06:40:51;;;;;;;3.25;2.95;;;;;;;9.78;52.62;96290.77;1770585;79;21107;-81
2021/05/04 06:43:17;;;;;;;3.67;3.08;;;;;;;9.78;52.68;96283.47;1736932;82;21083;-81
2021/05/04 06:45:43;;;;;;;4.15;3.67;;;;;;;9.84;52.20;96265.38;1769387;81;21126;-81
2021/05/04 06:48:09;;;;;;;3.60;3.12;;;;;;;9.82;51.32;96265.25;1765420;81;21082;-81
2021/05/04 06:50:35;;;;;;;5.75;5.03;;;;;;;9.81;51.42;96256.67;1767495;81;21232;-81
2021/05/04 06:53:02;;;;;;;5.35;3.65;;;;;;;9.91;52.75;96253.28;1741357;82;21090;-81
2021/05/04 06:55:28;;;;;;;4.70;4.20;;;;;;;10.04;51.39;96255.25;1774653;79;21126;-81
2021/05/04 06:57:54;;;;;;;4.33;3.75;;;;;;;10.03;52.03;96255.44;1773973;81;21133;-82
2021/05/04 07:00:21;;;;;;;4.15;3.20;;;;;;;10.11;52.29;96256.16;1762807;79;21093;-82
2021/05/04 07:02:47;;;;;;;4.55;4.08;;;;;;;10.28;52.12;96239.89;1750331;81;21150;-81
2021/05/04 07:05:14;;;;;;;4.72;3.80;;;;;;;10.41;51.78;96253.03;1768938;81;21229;-82
2021/05/04 07:07:41;;;;;;;6.92;4.90;;;;;;;10.37;50.79;96243.98;1765236;81;21329;-82
2021/05/04 07:10:07;;;;;;;4.33;3.40;;;;;;;10.38;51.10;96236.98;1759147;81;21117;-82
2021/05/04 07:12:33;;;;;;;5.40;4.33;;;;;;;10.46;51.11;96233.80;1758292;81;21221;-82
2021/05/04 07:14:59;;;;;;;7.08;4.72;;;;;;;10.54;51.24;96228.96;1746745;81;21130;-82
2021/05/04 07:17:26;;;;;;;5.90;4.33;;;;;;;10.57;50.77;96225.98;1761019;81;21423;-82
2021/05/04 07:19:55;;;;;;;3.37;3.08;;;;;;;10.58;51.67;96226.33;1763420;81;21121;-82
2021/05/04 07:22:25;;;;;;;4.08;2.95;;;;;;;10.68;51.14;96224.20;1748381;81;21129;-82
2021/05/04 07:24:51;;;;;;;5.05;3.85;;;;;;;10.74;50.71;96214.39;1752943;81;21113;-82
2021/05/04 07:27:17;;;;;;;5.15;4.10;;;;;;;10.80;51.06;96208.92;1756569;81;21129;-82
2021/05/04 07:29:43;;;;;;;5.12;4.30;;;;;;;10.87;50.95;96218.06;1761549;81;21273;-82
2021/05/04 07:32:10;;;;;;;3.67;3.20;;;;;;;10.95;51.09;96209.66;1747897;81;21070;-81
2021/05/04 07:34:36;;;;;;;5.03;3.77;;;;;;;11.02;50.82;96217.00;1762509;81;21106;-81
2021/05/04 07:37:03;;;;;;;4.75;3.45;;;;;;;11.06;50.25;96213.05;1750497;80;21142;-81
2021/05/04 07:39:29;;;;;;;5.33;3.52;;;;;;;11.11;50.69;96197.68;1762622;81;21110;-81
2021/05/04 07:41:55;;;;;;;5.28;3.77;;;;;;;11.19;50.81;96192.02;1751970;81;21178;-83
2021/05/04 07:44:21;;;;;;;4.53;3.58;;;;;;;11.28;51.21;96183.09;1725500;82;21102;-82
2021/05/04 07:46:48;;;;;;;3.95;3.47;;;;;;;11.36;51.26;96185.52;1727913;82;21079;-82
2021/05/04 07:49:21;;;;;;;3.67;2.95;;;;;;;11.42;50.24;96184.28;1728776;82;21333;-82
2021/05/04 07:51:43;;;;;;;3.75;3.22;;;;;;;11.56;51.08;96173.95;1726624;82;21958;-82
2021/05/04 07:54:09;;;;;;;3.37;2.83;;;;;;;11.65;48.96;96164.97;1721203;82;21123;-82
2021/05/04 07:56:35;;;;;;;4.55;2.90;;;;;;;11.78;49.55;96165.53;1719747;82;21134;-82
2021/05/04 07:59:01;;;;;;;3.83;2.98;;;;;;;11.92;49.69;96168.03;1737419;82;21395;-82
2021/05/04 08:01:27;;;;;;;3.25;2.42;;;;;;;12.08;49.53;96166.08;1727491;82;21127;-82
2021/05/04 08:03:53;;;;;;;3.02;2.80;;;;;;;12.23;50.12;96162.81;1719951;82;21095;-82
2021/05/04 08:06:19;;;;;;;4.55;3.05;;;;;;;12.38;49.05;96162.14;1725476;82;21857;-82
2021/05/04 08:11:23;;;;;;;5.42;3.85;;;;;;;12.76;48.94;96148.53;1824193;77;22996;-81
2021/05/04 08:13:50;;;;;;;3.98;2.50;;;;;;;12.90;48.77;96153.55;1789052;78;21354;-81
2021/05/04 08:16:16;;;;;;;3.47;2.40;;;;;;;13.09;47.73;96160.25;1776704;78;21289;-81
2021/05/04 08:18:45;;;;;;;3.20;2.72;;;;;;;13.17;47.75;96145.17;1781607;78;21132;-80
2021/05/04 08:21:10;;;;;;;3.33;3.00;;;;;;;13.29;48.13;96145.39;1791642;78;21326;-82
2021/05/04 08:23:37;;;;;;;3.25;2.77;;;;;;;13.43;47.87;96144.86;1771092;78;21228;-80
2021/05/04 08:26:05;;;;;;;3.67;3.12;;;;;;;13.57;47.09;96135.98;1755023;80;21677;-81
2021/05/04 08:28:30;;;;;;;3.20;2.87;;;;;;;13.76;47.74;96131.70;1788920;78;21399;-81
2021/05/04 08:30:59;;;;;;;3.30;2.90;;;;;;;13.86;46.36;96149.55;1770694;78;21153;-80
2021/05/04 08:33:25;;;;;;;2.98;2.67;;;;;;;13.88;45.28;96120.90;1775919;78;21103;-81
2021/05/04 08:35:51;;;;;;;3.55;2.87;;;;;;;13.80;44.88;96129.76;1754656;78;21102;-80
2021/05/04 08:38:17;;;;;;;3.22;2.83;;;;;;;13.73;45.75;96153.00;1773694;78;21369;-82
2021/05/04 08:40:46;;;;;;;2.92;2.62;;;;;;;13.75;46.38;96134.81;1785072;78;21144;-82
2021/05/04 08:43:12;;;;;;;3.85;3.33;;;;;;;13.85;45.82;96152.66;1775804;78;21101;-82
2021/05/04 08:45:40;;;;;;;3.45;3.15;;;;;;;13.93;45.58;96130.72;1778987;78;21101;-81
2021/05/04 08:48:06;;;;;;;3.67;3.17;;;;;;;13.96;44.36;96138.93;1750287;80;21110;-81
2021/05/04 08:50:35;;;;;;;3.85;2.60;;;;;;;14.01;44.29;96135.20;1714320;81;21148;-81
2021/05/04 08:53:00;;;;;;;4.15;3.17;;;;;;;14.06;44.20;96134.57;1740046;80;21230;-82
2021/05/04 08:55:26;;;;;;;4.20;3.77;;;;;;;14.09;44.86;96136.77;1727450;81;21222;-82
2021/05/04 08:57:52;;;;;;;3.85;3.02;;;;;;;14.07;44.73;96132.25;1718285;81;21111;-81
2021/05/04 09:00:18;;;;;;;3.20;2.67;;;;;;;14.05;44.97;96120.71;1727192;81;21823;-81
2021/05/04 09:03:05;;;;;;;3.77;3.05;;;;;;;14.17;45.93;96111.70;1693224;81;21087;-81
2021/05/04 09:05:41;;;;;;;3.50;2.72;;;;;;;14.36;45.11;96102.13;1757493;80;21059;-82
2021/05/04 09:08:11;;;;;;;3.22;2.45;;;;;;;14.48;45.97;96093.94;1725638;81;21241;-81
2021/05/04 09:10:50;;;;;;;3.12;2.72;;;;;;;14.60;44.96;96103.98;1659513;82;21202;-82
2021/05/04 09:13:23;;;;;;;4.17;2.80;;;;;;;14.65;45.00;96087.67;1765233;79;21224;-82
2021/05/04 09:16:15;;;;;;;3.10;2.52;;;;;;;14.68;44.85;96093.27;1765267;79;21102;-82
2021/05/04 09:21:11;;;;;;;3.25;2.95;;;;;;;14.89;44.85;96080.80;1761581;79;21098;-82
2021/05/04 09:23:43;;;;;;;3.22;2.70;;;;;;;14.95;45.20;96067.65;1713929;82;21147;-82
2021/05/04 09:26:21;;;;;;;1.98;1.77;;;;;;;15.05;43.55;96057.20;1766472;79;21249;-82
2021/05/04 09:28:50;;;;;;;2.85;2.30;;;;;;;15.08;44.80;96058.08;1727957;81;21294;-82
2021/05/04 09:31:25;;;;;;;2.45;2.25;;;;;;;15.22;45.22;96049.06;1760405;79;21126;-82
2021/05/04 09:33:51;;;;;;;2.90;2.30;;;;;;;15.28;44.21;96049.49;1779266;79;21094;-82
2021/05/04 09:36:41;;;;;;;4.50;2.50;;;;;;;15.32;43.88;96051.98;1763781;79;21122;-82
2021/05/04 09:39:10;;;;;;;3.08;2.45;;;;;;;15.36;45.92;96034.02;1758767;79;21118;-82
2021/05/04 09:41:36;;;;;;;1.80;1.70;;;;;;;15.48;43.91;96038.81;1754067;79;21125;-82
2021/05/04 09:44:02;;;;;;;3.20;2.50;;;;;;;15.58;44.84;96029.90;1765674;79;21093;-82
2021/05/04 09:46:49;;;;;;;3.22;1.70;;;;;;;15.74;43.38;96041.61;1759506;79;21099;-81
2021/05/04 09:49:34;;;;;;;2.10;1.35;;;;;;;15.74;42.73;96031.13;1763601;79;21151;-81
2021/05/04 09:52:32;;;;;;;2.15;1.67;;;;;;;15.70;42.09;96021.62;1763451;79;21111;-81
2021/05/04 09:55:10;;;;;;;2.30;1.27;;;;;;;15.63;43.09;96009.64;1773934;79;21055;-81
2021/05/04 09:57:52;;;;;;;1.90;1.50;;;;;;;15.77;43.11;96001.87;1778344;79;21242;-82
2021/05/04 10:00:24;;;;;;;1.67;1.40;;;;;;;15.88;42.58;96001.11;1746465;80;21356;-82
2021/05/04 10:02:50;;;;;;;2.95;1.30;;;;;;;16.00;43.39;95999.33;1757538;79;21411;-81
2021/05/04 10:05:18;;;;;;;2.02;1.55;;;;;;;16.13;41.97;96012.75;1767579;79;21158;-81
2021/05/04 10:07:45;;;;;;;2.30;1.30;;;;;;;16.28;42.56;95994.77;1754458;79;21233;-82
2021/05/04 10:10:15;;;;;;;1.95;1.20;;;;;;;16.41;42.76;95987.97;1755228;79;21109;-82
2021/05/04 10:12:45;;;;;;;2.25;1.50;;;;;;;16.58;43.45;95988.09;1758292;79;21094;-81
2021/05/04 10:15:15;;;;;;;2.60;1.40;;;;;;;16.68;40.48;95982.31;1772108;79;21089;-82
2021/05/04 10:17:42;;;;;;;2.33;1.17;;;;;;;16.72;41.79;95975.56;1777786;79;21122;-82
2021/05/04 10:20:14;;;;;;;1.52;1.22;;;;;;;16.82;41.02;95968.44;1764382;79;21071;-82
2021/05/04 10:22:40;;;;;;;2.20;1.32;;;;;;;16.90;42.03;95958.88;1769471;79;21232;-82
2021/05/04 10:25:19;;;;;;;1.75;1.40;;;;;;;16.99;41.47;95965.38;1773699;79;21126;-83
2021/05/04 10:27:45;;;;;;;2.05;1.50;;;;;;;16.97;40.01;95960.37;1774386;79;21281;-82
2021/05/04 10:30:12;;;;;;;2.10;1.40;;;;;;;17.01;39.94;95955.45;1771965;79;21098;-82
2021/05/04 10:32:53;;;;;;;1.67;1.17;;;;;;;17.06;39.28;95958.16;1772221;79;21126;-82
2021/05/04 10:35:34;;;;;;;1.47;1.22;;;;;;;17.07;40.15;95945.32;1767298;79;21601;-81
2021/05/04 10:38:15;;;;;;;2.80;1.55;;;;;;;17.15;38.41;95947.59;1768386;79;21245;-81
2021/05/04 10:40:46;;;;;;;1.90;1.27;;;;;;;17.26;39.46;95947.28;1761502;79;21115;-81
2021/05/04 10:43:29;;;;;;;2.15;1.30;;;;;;;17.37;37.62;95946.42;1761086;79;21098;-81
2021/05/04 10:45:56;;;;;;;1.65;1.37;;;;;;;17.44;37.80;95938.42;1768327;79;21119;-82
2021/05/04 10:48:48;;;;;;;2.37;1.45;;;;;;;17.54;36.88;95955.66;1758717;79;21113;-81
2021/05/04 10:51:16;;;;;;;1.80;1.17;;;;;;;17.58;37.58;95944.98;1700763;81;21182;-82
2021/05/04 10:54:01;;;;;;;1.70;1.50;;;;;;;17.57;35.86;95959.95;1756769;79;21071;-81
2021/05/04 10:56:43;;;;;;;2.42;1.25;;;;;;;17.58;37.09;95939.73;1752677;79;21100;-81
2021/05/04 10:59:24;;;;;;;4.28;2.27;;;;;;;17.56;37.66;95928.11;1767738;79;21306;-81
2021/05/04 11:02:19;;;;;;;1.87;1.10;;;;;;;17.67;38.49;95930.41;1753293;79;21153;-81
2021/05/04 11:04:48;;;;;;;2.47;1.27;;;;;;;17.78;37.07;95910.40;1755169;79;21419;-82
2021/05/04 11:07:50;;;;;;;1.70;1.10;;;;;;;17.86;37.89;95926.55;1751860;79;21135;-83
2021/05/04 11:10:16;;;;;;;;;;;;;;;17.92;36.78;95929.56;1757214;80;21591;-82
2021/05/04 11:12:42;;;;;;;1.95;1.50;;;;;;;17.86;36.24;95915.24;1761129;79;20142;-81
2021/05/04 11:15:24;;;;;;;1.72;1.22;;;;;;;17.87;36.58;95915.00;1763319;79;21070;-81
2021/05/04 11:17:50;;;;;;;2.10;1.00;;;;;;;17.96;37.99;95912.27;1765232;79;21134;-81
2021/05/04 11:20:37;;;;;;;1.60;0.95;;;;;;;18.10;37.44;95910.64;1789250;79;21085;-81
2021/05/04 11:23:05;;;;;;;2.33;1.30;;;;;;;18.14;35.66;95902.02;1696288;82;21332;-81
2021/05/04 11:25:38;;;;;;;2.17;1.22;;;;;;;18.12;33.08;95888.84;1768440;79;21094;-82
2021/05/04 11:28:04;;;;;;;1.92;1.12;;;;;;;18.06;35.08;95902.93;1783117;79;21091;-82
2021/05/04 11:30:35;;;;;;;1.67;1.45;;;;;;;18.10;35.55;95898.28;1764312;79;21342;-82
2021/05/04 11:33:27;;;;;;;3.35;1.40;;;;;;;18.14;33.88;95892.82;1762262;79;21195;-82
2021/05/04 11:35:54;;;;;;;1.97;1.20;;;;;;;18.14;33.88;95892.82;1775916;79;21494;-82
2021/05/04 11:38:22;;;;;;;2.75;1.25;;;;;;;18.13;35.48;95898.32;1765412;79;21133;-81
2021/05/04 11:40:48;;;;;;;1.95;1.35;;;;;;;18.11;35.23;95901.72;1767126;79;21351;-82
2021/05/04 11:43:17;;;;;;;2.15;1.45;;;;;;;18.10;35.91;95902.75;1777753;79;21126;-82
2021/05/04 11:45:43;;;;;;;1.92;1.32;;;;;;;18.09;35.61;95906.42;1779508;80;21129;-82
2021/05/04 11:48:12;;;;;;;3.10;1.82;;;;;;;18.01;35.33;95904.97;1780416;79;21130;-82